Time;durP1;ratioP1;P1;durP2;ratioP2;P2;SDS_P1;SDS_P2;PMS_P1;PMS_P2;Temp;Humidity;BMP_temperature;BMP_pressure;BME280_temperature;BME280_humidity;BME280_pressure;Samples;Min_cycle;Max_cycle;Signal;HPM_P1;HPM_P2
2022/01/19 00:01:45;;;;;;;2.73;1.97;;;;;;;;;;4509543;28;20032;-62
2022/01/19 00:03:56;;;;;;;2.90;1.90;;;;;;;;;;4511185;28;20052;-63
2022/01/19 00:06:06;;;;;;;3.43;2.20;;;;;;;;;;4510133;28;20651;-62
2022/01/19 00:08:20;;;;;;;4.77;2.50;;;;;;;;;;4509624;28;20587;-62
2022/01/19 00:10:30;;;;;;;3.28;2.47;;;;;;;;;;4542545;28;20134;-63
2022/01/19 00:12:43;;;;;;;3.10;2.10;;;;;;;;;;4541944;28;20384;-63
2022/01/19 00:14:53;;;;;;;2.75;1.85;;;;;;;;;;4510630;28;20029;-62
2022/01/19 00:17:03;;;;;;;3.30;1.83;;;;;;;;;;4509676;28;20988;-62
2022/01/19 00:19:14;;;;;;;5.23;2.40;;;;;;;;;;4510233;28;28269;-62
2022/01/19 00:21:24;;;;;;;3.10;2.10;;;;;;;;;;4512723;28;20398;-63
2022/01/19 00:23:35;;;;;;;3.90;2.40;;;;;;;;;;4511496;28;20033;-62
2022/01/19 00:25:46;;;;;;;4.77;2.30;;;;;;;;;;4510454;28;20215;-62
2022/01/19 00:27:57;;;;;;;;;;;;;;;;;;4512133;28;20112;-63
2022/01/19 00:30:08;;;;;;;4.97;2.42;;;;;;;;;;4495643;28;20004;-62
2022/01/19 00:32:19;;;;;;;5.18;2.65;;;;;;;;;;4509113;28;20084;-62
2022/01/19 00:34:29;;;;;;;3.92;2.38;;;;;;;;;;4510614;28;20129;-63
2022/01/19 00:36:40;;;;;;;3.87;2.53;;;;;;;;;;4542423;28;20028;-63
2022/01/19 00:38:50;;;;;;;4.23;2.50;;;;;;;;;;4510616;28;20028;-62
2022/01/19 00:41:02;;;;;;;5.45;2.88;;;;;;;;;;4508787;28;20018;-62
2022/01/19 00:43:14;;;;;;;6.07;3.10;;;;;;;;;;4509118;28;20079;-63
2022/01/19 00:45:24;;;;;;;;;;;;;;;;;;4510548;28;20617;-63
2022/01/19 00:47:35;;;;;;;4.82;2.78;;;;;;;;;;4502836;28;19977;-63
2022/01/19 00:49:45;;;;;;;4.90;2.77;;;;;;;;;;4543468;28;20025;-63
2022/01/19 00:51:56;;;;;;;3.83;2.70;;;;;;;;;;4511620;28;20017;-63
2022/01/19 00:54:06;;;;;;;3.17;2.53;;;;;;;;;;4529625;28;20029;-63
2022/01/19 00:56:17;;;;;;;3.63;2.50;;;;;;;;;;4507448;28;20026;-63
2022/01/19 00:58:27;;;;;;;3.90;2.10;;;;;;;;;;4509863;28;20014;-63
2022/01/19 01:00:38;;;;;;;6.33;3.30;;;;;;;;;;4512866;28;20021;-63
2022/01/19 01:02:48;;;;;;;5.27;2.90;;;;;;;;;;4511770;28;20092;-63
2022/01/19 01:04:59;;;;;;;3.43;2.40;;;;;;;;;;4509895;28;20073;-63
2022/01/19 01:07:09;;;;;;;4.50;2.47;;;;;;;;;;4541343;28;20051;-62
2022/01/19 01:09:20;;;;;;;5.50;2.97;;;;;;;;;;4511276;28;20022;-63
2022/01/19 01:11:35;;;;;;;5.00;2.47;;;;;;;;;;4541608;28;20025;-62
2022/01/19 01:16:17;;;;;;;6.20;3.28;;;;;;;;;;4509533;28;20018;-63
2022/01/19 01:18:29;;;;;;;3.65;2.47;;;;;;;;;;4540453;28;20128;-63
2022/01/19 01:20:43;;;;;;;5.38;2.63;;;;;;;;;;4496385;28;20638;-63
2022/01/19 01:22:53;;;;;;;4.43;2.50;;;;;;;;;;4541933;28;20033;-63
2022/01/19 01:25:05;;;;;;;4.93;2.50;;;;;;;;;;4540598;28;20044;-63
2022/01/19 01:27:15;;;;;;;3.88;2.42;;;;;;;;;;4508775;28;20030;-63
2022/01/19 01:29:25;;;;;;;5.13;2.30;;;;;;;;;;4528845;28;20029;-63
2022/01/19 01:31:36;;;;;;;5.10;2.53;;;;;;;;;;4541850;28;20032;-63
2022/01/19 01:33:46;;;;;;;3.50;2.47;;;;;;;;;;4517029;28;20118;-63
2022/01/19 01:35:57;;;;;;;3.60;2.10;;;;;;;;;;4509891;28;20022;-63
2022/01/19 01:38:09;;;;;;;3.90;2.47;;;;;;;;;;4535556;28;20104;-63
2022/01/19 01:40:21;;;;;;;4.07;2.40;;;;;;;;;;4524515;28;20046;-63
2022/01/19 01:42:32;;;;;;;5.57;2.60;;;;;;;;;;4509615;28;20022;-63
2022/01/19 01:44:47;;;;;;;3.20;2.13;;;;;;;;;;4508906;28;20037;-63
2022/01/19 01:47:00;;;;;;;3.67;2.47;;;;;;;;;;4534907;28;20025;-63
2022/01/19 01:49:17;;;;;;;3.15;2.33;;;;;;;;;;4543951;28;20103;-63
2022/01/19 01:53:58;;;;;;;4.25;2.53;;;;;;;;;;4508017;28;20018;-63
2022/01/19 01:56:11;;;;;;;4.55;2.70;;;;;;;;;;4524829;28;20107;-63
2022/01/19 01:58:21;;;;;;;4.70;2.90;;;;;;;;;;4532355;28;20033;-63
2022/01/19 02:00:45;;;;;;;4.60;2.50;;;;;;;;;;4541659;28;20024;-62
2022/01/19 02:02:56;;;;;;;3.43;2.50;;;;;;;;;;4539830;28;20067;-63
2022/01/19 02:05:10;;;;;;;4.43;2.33;;;;;;;;;;4508399;28;20038;-62
2022/01/19 02:07:47;;;;;;;3.90;2.63;;;;;;;;;;4514123;28;20025;-63
2022/01/19 02:10:04;;;;;;;4.45;2.72;;;;;;;;;;4542108;28;20033;-63
2022/01/19 02:22:14;;;;;;;4.10;2.58;;;;;;;;;;4515066;28;20026;-63
2022/01/19 02:24:30;;;;;;;5.40;2.90;;;;;;;;;;4540622;28;20025;-63
2022/01/19 02:26:56;;;;;;;5.68;2.78;;;;;;;;;;4542231;28;21261;-63
2022/01/19 02:29:24;;;;;;;3.58;2.50;;;;;;;;;;4522525;28;20065;-63
2022/01/19 02:36:49;;;;;;;4.90;2.60;;;;;;;;;;4527784;28;20164;-63
2022/01/19 02:41:29;;;;;;;3.53;2.45;;;;;;;;;;4506867;28;20018;-62
2022/01/19 02:43:45;;;;;;;3.40;2.23;;;;;;;;;;4508971;28;20367;-63
2022/01/19 02:50:54;;;;;;;3.05;2.20;;;;;;;;;;4535061;28;20116;-63
2022/01/19 02:53:04;;;;;;;3.43;2.20;;;;;;;;;;4510165;28;20028;-63
2022/01/19 02:55:15;;;;;;;3.93;2.70;;;;;;;;;;4540412;28;20028;-62
2022/01/19 02:57:26;;;;;;;4.40;2.70;;;;;;;;;;4533419;28;20053;-63
2022/01/19 03:09:11;;;;;;;5.85;3.17;;;;;;;;;;4508583;28;20100;-63
2022/01/19 03:11:24;;;;;;;4.80;2.93;;;;;;;;;;4508520;28;20169;-63
2022/01/19 03:13:34;;;;;;;5.40;3.13;;;;;;;;;;4514484;28;20513;-63
2022/01/19 03:15:46;;;;;;;3.77;2.70;;;;;;;;;;4539651;28;20025;-63
2022/01/19 03:17:59;;;;;;;3.88;2.60;;;;;;;;;;4540683;28;20048;-63
2022/01/19 03:20:11;;;;;;;3.80;2.60;;;;;;;;;;4507009;28;20666;-63
2022/01/19 03:22:27;;;;;;;4.10;2.80;;;;;;;;;;4516768;28;20583;-63
2022/01/19 03:24:39;;;;;;;4.25;2.50;;;;;;;;;;4509841;28;20049;-63
2022/01/19 03:26:50;;;;;;;3.50;2.35;;;;;;;;;;4539994;28;20054;-63
2022/01/19 03:29:03;;;;;;;4.55;2.47;;;;;;;;;;4493662;28;20018;-63
2022/01/19 03:31:14;;;;;;;4.47;2.60;;;;;;;;;;4516238;28;20026;-63
2022/01/19 03:33:24;;;;;;;4.40;2.50;;;;;;;;;;4539087;28;20110;-62
2022/01/19 03:35:36;;;;;;;4.93;2.67;;;;;;;;;;4515688;28;20056;-63
2022/01/19 03:37:46;;;;;;;4.00;2.78;;;;;;;;;;4496563;28;20062;-63
2022/01/19 03:39:57;;;;;;;5.33;2.80;;;;;;;;;;4540477;28;20014;-63
2022/01/19 03:42:07;;;;;;;3.93;2.73;;;;;;;;;;4524107;28;20018;-63
2022/01/19 03:44:18;;;;;;;3.93;2.47;;;;;;;;;;4539071;28;20029;-63
2022/01/19 03:46:33;;;;;;;4.57;2.77;;;;;;;;;;4510362;28;20053;-63
2022/01/19 03:48:57;;;;;;;6.05;3.25;;;;;;;;;;4541539;28;20571;-63
2022/01/19 03:51:08;;;;;;;5.18;2.70;;;;;;;;;;4539590;28;21393;-63
2022/01/19 03:53:19;;;;;;;4.17;2.60;;;;;;;;;;4537802;28;20123;-63
2022/01/19 03:55:29;;;;;;;4.53;2.93;;;;;;;;;;4506004;28;20109;-63
2022/01/19 03:57:40;;;;;;;5.13;2.97;;;;;;;;;;4511988;28;20030;-63
2022/01/19 03:59:50;;;;;;;3.17;2.40;;;;;;;;;;4538162;28;20191;-62
2022/01/19 04:02:01;;;;;;;3.43;2.33;;;;;;;;;;4508576;28;20029;-63
2022/01/19 04:07:07;;;;;;;3.88;2.63;;;;;;;;;;4497691;28;20836;-63
2022/01/19 04:09:09;;;;;;;4.28;2.55;;;;;;;;;;4508192;28;20108;-62
2022/01/19 04:11:22;;;;;;;4.47;2.70;;;;;;;;;;4540385;28;20111;-63
2022/01/19 04:13:44;;;;;;;4.55;2.60;;;;;;;;;;4506615;28;20121;-63
2022/01/19 04:15:55;;;;;;;5.00;2.63;;;;;;;;;;4511109;28;21208;-62
2022/01/19 04:18:05;;;;;;;3.37;2.40;;;;;;;;;;4540862;28;20021;-63
2022/01/19 04:20:16;;;;;;;5.37;2.87;;;;;;;;;;4509587;28;20018;-62
2022/01/19 04:22:26;;;;;;;4.07;2.93;;;;;;;;;;4513475;28;20022;-63
2022/01/19 04:24:45;;;;;;;4.40;2.60;;;;;;;;;;4528774;28;21306;-63
2022/01/19 04:29:25;;;;;;;5.72;3.10;;;;;;;;;;4517158;28;20037;-63
2022/01/19 04:31:36;;;;;;;5.03;2.80;;;;;;;;;;4542171;28;20036;-62
2022/01/19 04:33:47;;;;;;;3.45;2.38;;;;;;;;;;4535050;28;20572;-62
2022/01/19 04:36:18;;;;;;;4.30;2.67;;;;;;;;;;4535734;28;20647;-63
2022/01/19 05:03:45;;;;;;;4.13;2.50;;;;;;;;;;4514737;28;20037;-63
2022/01/19 05:06:12;;;;;;;4.95;2.80;;;;;;;;;;4511431;28;20042;-63
2022/01/19 05:15:19;;;;;;;4.57;2.63;;;;;;;;;;4524417;28;20100;-62
2022/01/19 05:17:30;;;;;;;4.57;2.67;;;;;;;;;;4541387;28;20124;-62
2022/01/19 05:19:40;;;;;;;3.20;2.30;;;;;;;;;;4512222;28;20142;-63
2022/01/19 05:21:52;;;;;;;;;;;;;;;;;;4528070;28;20005;-63
2022/01/19 05:24:07;;;;;;;4.00;2.17;;;;;;;;;;4510928;28;19956;-62
2022/01/19 05:26:19;;;;;;;4.05;2.28;;;;;;;;;;4515586;28;20116;-62
2022/01/19 05:28:30;;;;;;;3.30;2.00;;;;;;;;;;4542449;28;20025;-63
2022/01/19 05:30:40;;;;;;;3.33;2.20;;;;;;;;;;4541551;28;20398;-62
2022/01/19 05:32:51;;;;;;;5.90;3.60;;;;;;;;;;4510995;28;20030;-63
2022/01/19 05:35:02;;;;;;;10.67;7.47;;;;;;;;;;4507759;28;20276;-63
2022/01/19 05:37:36;;;;;;;11.15;7.40;;;;;;;;;;4540476;28;20586;-63
2022/01/19 05:40:14;;;;;;;29.27;20.50;;;;;;;;;;4509157;28;20040;-63
2022/01/19 05:42:29;;;;;;;24.48;18.13;;;;;;;;;;4514092;28;20037;-63
2022/01/19 05:44:43;;;;;;;35.23;25.13;;;;;;;;;;4512100;28;20111;-63
2022/01/19 05:46:54;;;;;;;22.45;16.77;;;;;;;;;;4510698;28;20018;-63
2022/01/19 05:49:05;;;;;;;18.13;12.87;;;;;;;;;;4516076;28;20026;-63
2022/01/19 05:51:15;;;;;;;15.33;10.93;;;;;;;;;;4516959;28;20029;-63
2022/01/19 05:53:25;;;;;;;16.73;11.10;;;;;;;;;;4516420;28;20112;-63
2022/01/19 05:55:36;;;;;;;10.83;6.70;;;;;;;;;;4542689;28;20021;-63
2022/01/19 05:57:47;;;;;;;9.03;6.13;;;;;;;;;;4526504;28;20025;-63
2022/01/19 05:59:57;;;;;;;6.90;3.83;;;;;;;;;;4515579;28;20084;-62
2022/01/19 06:02:08;;;;;;;3.97;2.50;;;;;;;;;;4540212;28;20036;-63
2022/01/19 06:04:18;;;;;;;4.23;2.37;;;;;;;;;;4507425;28;21002;-62
2022/01/19 06:06:47;;;;;;;3.88;2.30;;;;;;;;;;4540008;28;20099;-63
2022/01/19 06:10:03;;;;;;;4.25;2.70;;;;;;;;;;4532920;28;20026;-62
2022/01/19 06:11:48;;;;;;;5.78;3.88;;;;;;;;;;4509456;28;20800;-63
2022/01/19 06:13:59;;;;;;;7.03;4.20;;;;;;;;;;4527550;28;20033;-63
2022/01/19 06:16:09;;;;;;;4.20;2.77;;;;;;;;;;4511740;28;20080;-63
2022/01/19 06:18:20;;;;;;;3.73;2.80;;;;;;;;;;4509290;28;20025;-62
2022/01/19 06:20:31;;;;;;;3.47;2.17;;;;;;;;;;4527130;28;20049;-63
2022/01/19 06:22:41;;;;;;;4.07;2.60;;;;;;;;;;4541211;28;20556;-62
2022/01/19 06:24:52;;;;;;;4.33;2.50;;;;;;;;;;4540979;28;20040;-62
2022/01/19 06:27:03;;;;;;;4.03;2.03;;;;;;;;;;4541314;28;20071;-63
2022/01/19 06:29:15;;;;;;;;;;;;;;;;;;4513978;28;20242;-63
2022/01/19 06:31:25;;;;;;;3.25;2.20;;;;;;;;;;4499499;28;19914;-63
2022/01/19 06:33:39;;;;;;;3.08;1.90;;;;;;;;;;4541312;28;20025;-62
2022/01/19 06:35:53;;;;;;;2.90;1.92;;;;;;;;;;4517529;28;21251;-62
2022/01/19 06:38:22;;;;;;;3.03;2.00;;;;;;;;;;4508856;28;20038;-63
2022/01/19 06:40:36;;;;;;;3.67;2.00;;;;;;;;;;4510898;28;20686;-63
2022/01/19 06:42:47;;;;;;;2.93;1.90;;;;;;;;;;4504829;28;20088;-62
2022/01/19 06:44:58;;;;;;;2.90;2.00;;;;;;;;;;4510886;28;20304;-63
2022/01/19 06:47:08;;;;;;;3.20;2.03;;;;;;;;;;4508188;28;20026;-63
2022/01/19 06:49:19;;;;;;;3.03;2.10;;;;;;;;;;4510436;28;20029;-63
2022/01/19 06:51:29;;;;;;;3.70;2.47;;;;;;;;;;4541730;28;20490;-63
2022/01/19 06:53:43;;;;;;;4.30;2.40;;;;;;;;;;4539987;28;20072;-63
2022/01/19 06:56:04;;;;;;;;;;;;;;;;;;4540227;28;20036;-63
2022/01/19 06:58:16;;;;;;;4.22;2.28;;;;;;;;;;4539524;28;19912;-63
2022/01/19 07:00:29;;;;;;;3.60;2.47;;;;;;;;;;4508124;28;20076;-63
2022/01/19 07:02:53;;;;;;;3.65;2.38;;;;;;;;;;4529154;28;20071;-62
2022/01/19 07:05:20;;;;;;;2.70;2.10;;;;;;;;;;4516889;28;20037;-63
2022/01/19 07:07:43;;;;;;;3.10;2.15;;;;;;;;;;4531780;28;20166;-62
2022/01/19 07:09:54;;;;;;;3.27;2.17;;;;;;;;;;4539670;28;20040;-63
2022/01/19 07:12:05;;;;;;;4.13;2.53;;;;;;;;;;4515897;28;21099;-63
2022/01/19 07:14:19;;;;;;;3.72;2.35;;;;;;;;;;4516354;28;20391;-63
2022/01/19 07:16:32;;;;;;;3.40;2.20;;;;;;;;;;4540853;28;20052;-63
2022/01/19 07:18:42;;;;;;;3.07;2.50;;;;;;;;;;4506894;28;20034;-62
2022/01/19 07:20:53;;;;;;;4.05;2.00;;;;;;;;;;4532558;28;20691;-63
2022/01/19 07:23:06;;;;;;;3.33;2.05;;;;;;;;;;4541398;28;20042;-63
2022/01/19 07:25:17;;;;;;;3.20;2.33;;;;;;;;;;4493298;28;20033;-63
2022/01/19 07:27:27;;;;;;;3.23;2.23;;;;;;;;;;4509972;28;20534;-62
2022/01/19 07:29:38;;;;;;;9.63;6.67;;;;;;;;;;4508142;28;20116;-63
2022/01/19 07:31:50;;;;;;;7.82;6.03;;;;;;;;;;4510146;28;20040;-63
2022/01/19 07:34:01;;;;;;;6.07;4.85;;;;;;;;;;4538656;28;21227;-63
2022/01/19 07:36:12;;;;;;;3.92;2.92;;;;;;;;;;4539239;28;20025;-63
2022/01/19 07:38:23;;;;;;;4.10;2.50;;;;;;;;;;4540528;28;20045;-63
2022/01/19 07:40:34;;;;;;;4.63;2.55;;;;;;;;;;4512861;28;20108;-63
2022/01/19 07:42:45;;;;;;;3.40;2.30;;;;;;;;;;4508287;28;20132;-63
2022/01/19 07:45:14;;;;;;;3.35;2.30;;;;;;;;;;4507236;28;20053;-63
2022/01/19 07:47:50;;;;;;;3.95;2.25;;;;;;;;;;4530068;28;20040;-62
2022/01/19 07:50:25;;;;;;;3.22;2.10;;;;;;;;;;4528120;28;20052;-63
2022/01/19 07:52:47;;;;;;;3.10;2.25;;;;;;;;;;4520751;28;20089;-63
2022/01/19 07:55:04;;;;;;;4.28;2.47;;;;;;;;;;4542062;28;20144;-63
2022/01/19 07:57:33;;;;;;;3.50;2.50;;;;;;;;;;4510214;28;20033;-63
2022/01/19 08:00:03;;;;;;;4.05;2.55;;;;;;;;;;4510834;28;20038;-62
2022/01/19 08:02:32;;;;;;;3.20;2.15;;;;;;;;;;4508151;28;20173;-63
2022/01/19 08:04:55;;;;;;;3.25;2.30;;;;;;;;;;4509453;28;20241;-63
2022/01/19 08:07:09;;;;;;;4.68;3.13;;;;;;;;;;4516041;28;20114;-63
2022/01/19 08:09:26;;;;;;;3.80;2.70;;;;;;;;;;4510077;28;20038;-63
2022/01/19 08:11:36;;;;;;;4.07;3.03;;;;;;;;;;4542279;28;20033;-63
2022/01/19 08:14:04;;;;;;;4.78;2.83;;;;;;;;;;4543219;28;20137;-63
2022/01/19 08:16:16;;;;;;;3.83;2.75;;;;;;;;;;4544226;28;20091;-63
2022/01/19 08:18:26;;;;;;;4.38;2.90;;;;;;;;;;4501308;28;20042;-64
2022/01/19 08:20:40;;;;;;;4.20;2.67;;;;;;;;;;4514433;28;20021;-63
2022/01/19 08:22:51;;;;;;;4.28;2.67;;;;;;;;;;4528318;28;20029;-63
2022/01/19 08:25:05;;;;;;;3.38;2.60;;;;;;;;;;4541984;28;20632;-63
2022/01/19 08:27:16;;;;;;;5.00;2.93;;;;;;;;;;4513437;28;20034;-63
2022/01/19 08:29:32;;;;;;;3.10;2.47;;;;;;;;;;4501016;28;20541;-61
2022/01/19 08:31:46;;;;;;;4.25;3.08;;;;;;;;;;4493874;28;20041;-61
2022/01/19 08:34:17;;;;;;;4.00;2.78;;;;;;;;;;4538767;28;20120;-61
2022/01/19 08:37:00;;;;;;;4.32;2.90;;;;;;;;;;4505822;28;20236;-61
2022/01/19 08:39:24;;;;;;;3.72;2.47;;;;;;;;;;4527424;28;20099;-61
2022/01/19 08:41:35;;;;;;;3.05;2.20;;;;;;;;;;4531331;28;20029;-61
2022/01/19 08:43:46;;;;;;;5.13;3.00;;;;;;;;;;4526599;28;20501;-61
2022/01/19 08:45:57;;;;;;;4.75;3.22;;;;;;;;;;4485460;28;20138;-61
2022/01/19 08:48:10;;;;;;;4.30;2.90;;;;;;;;;;4545170;28;20041;-61
2022/01/19 08:50:40;;;;;;;3.95;2.60;;;;;;;;;;4512218;28;20041;-61
2022/01/19 08:52:54;;;;;;;3.83;3.03;;;;;;;;;;4541896;28;20033;-61
2022/01/19 08:55:19;;;;;;;4.15;2.90;;;;;;;;;;4520039;28;20037;-63
2022/01/19 08:57:29;;;;;;;4.50;2.80;;;;;;;;;;4512052;28;20030;-62
2022/01/19 08:59:40;;;;;;;4.90;2.80;;;;;;;;;;4542855;28;20033;-63
2022/01/19 09:01:50;;;;;;;5.67;3.20;;;;;;;;;;4510317;28;20065;-63
2022/01/19 09:04:01;;;;;;;3.63;2.67;;;;;;;;;;4510579;28;20030;-63
2022/01/19 09:06:11;;;;;;;3.63;2.57;;;;;;;;;;4509985;28;20105;-63
2022/01/19 09:08:22;;;;;;;4.40;2.70;;;;;;;;;;4512319;28;20033;-63
2022/01/19 09:10:32;;;;;;;5.27;2.60;;;;;;;;;;4545146;28;20040;-63
2022/01/19 09:12:43;;;;;;;3.87;2.73;;;;;;;;;;4510385;28;20072;-63
2022/01/19 09:14:54;;;;;;;5.47;2.85;;;;;;;;;;4511972;28;20551;-63
2022/01/19 09:17:07;;;;;;;4.07;2.40;;;;;;;;;;4511711;28;20332;-64
2022/01/19 09:19:19;;;;;;;3.53;2.40;;;;;;;;;;4542481;28;20654;-63
2022/01/19 09:21:29;;;;;;;4.47;2.42;;;;;;;;;;4510776;28;21316;-62
2022/01/19 09:23:40;;;;;;;4.80;2.20;;;;;;;;;;4510991;28;20083;-63
2022/01/19 09:25:50;;;;;;;3.93;2.30;;;;;;;;;;4509856;28;20655;-62
2022/01/19 09:28:01;;;;;;;2.97;1.77;;;;;;;;;;4510968;28;20039;-63
2022/01/19 09:30:15;;;;;;;2.60;1.92;;;;;;;;;;4514069;28;20964;-62
2022/01/19 09:32:27;;;;;;;3.53;2.00;;;;;;;;;;4510602;28;20151;-62
2022/01/19 09:34:47;;;;;;;;;;;;;;;;;;4543043;28;20202;-62
2022/01/19 09:36:57;;;;;;;3.33;2.20;;;;;;;;;;4510457;28;19925;-62
2022/01/19 09:39:08;;;;;;;3.00;2.13;;;;;;;;;;4511991;28;20021;-62
2022/01/19 09:41:19;;;;;;;3.78;2.40;;;;;;;;;;4510227;28;20038;-62
2022/01/19 09:43:30;;;;;;;3.42;2.25;;;;;;;;;;4511384;28;20406;-62
2022/01/19 09:45:41;;;;;;;4.57;2.20;;;;;;;;;;4509263;28;20466;-62
2022/01/19 09:47:51;;;;;;;3.17;2.38;;;;;;;;;;4511496;28;20038;-62
2022/01/19 09:50:03;;;;;;;3.03;2.00;;;;;;;;;;4509922;28;20131;-62
2022/01/19 09:52:13;;;;;;;2.75;2.22;;;;;;;;;;4510043;28;20120;-69
2022/01/19 09:54:27;;;;;;;3.43;1.80;;;;;;;;;;4543392;28;20048;-63
2022/01/19 09:56:37;;;;;;;2.75;1.90;;;;;;;;;;4507875;28;20048;-67
2022/01/19 09:58:48;;;;;;;2.03;1.90;;;;;;;;;;4510232;28;20032;-66
2022/01/19 10:00:58;;;;;;;2.87;1.93;;;;;;;;;;4510874;28;20465;-67
2022/01/19 10:03:18;;;;;;;3.80;2.30;;;;;;;;;;4509791;28;20547;-65
2022/01/19 10:05:28;;;;;;;3.05;2.10;;;;;;;;;;4510973;28;20050;-62
2022/01/19 10:07:38;;;;;;;2.23;2.00;;;;;;;;;;4511121;28;20038;-63
2022/01/19 10:10:21;;;;;;;4.63;3.03;;;;;;;;;;4510159;28;20079;-63
2022/01/19 10:17:33;;;;;;;2.78;2.00;;;;;;;;;;4511539;28;20038;-64
2022/01/19 10:19:52;;;;;;;3.27;1.80;;;;;;;;;;4510012;28;20405;-64
2022/01/19 10:22:08;;;;;;;4.45;2.67;;;;;;;;;;4510526;28;20045;-64
2022/01/19 10:24:18;;;;;;;3.15;2.13;;;;;;;;;;4509940;28;20041;-64
2022/01/19 10:26:31;;;;;;;2.70;2.00;;;;;;;;;;4515688;28;20033;-64
2022/01/19 10:28:57;;;;;;;3.08;2.20;;;;;;;;;;4509302;28;20042;-64
2022/01/19 10:31:16;;;;;;;4.13;2.60;;;;;;;;;;4511481;28;20034;-64
2022/01/19 10:33:26;;;;;;;4.57;2.60;;;;;;;;;;4508204;28;20037;-64
2022/01/19 10:35:38;;;;;;;4.10;2.50;;;;;;;;;;4541804;28;20035;-64
2022/01/19 10:38:11;;;;;;;3.97;2.30;;;;;;;;;;4509868;28;21325;-64
2022/01/19 10:40:22;;;;;;;2.95;2.28;;;;;;;;;;4512667;28;20038;-65
2022/01/19 10:42:34;;;;;;;3.10;1.97;;;;;;;;;;4508937;28;20030;-64
2022/01/19 10:44:57;;;;;;;4.13;2.10;;;;;;;;;;4510697;28;20042;-64
2022/01/19 10:47:08;;;;;;;3.35;2.10;;;;;;;;;;4542494;28;20091;-64
2022/01/19 10:49:19;;;;;;;;;;;;;;;;;;4525446;28;20124;-64
2022/01/19 10:51:36;;;;;;;2.40;1.88;;;;;;;;;;4510430;28;19917;-64
2022/01/19 10:54:11;;;;;;;2.47;1.70;;;;;;;;;;4510089;28;20029;-64
2022/01/19 10:56:29;;;;;;;1.80;1.50;;;;;;;;;;4500638;28;20736;-64
2022/01/19 10:59:00;;;;;;;2.72;1.77;;;;;;;;;;4541256;28;20033;-64
2022/01/19 11:01:10;;;;;;;2.10;1.60;;;;;;;;;;4507739;28;20045;-64
2022/01/19 11:03:26;;;;;;;1.90;1.70;;;;;;;;;;4508589;28;20508;-64
2022/01/19 11:05:42;;;;;;;2.30;1.60;;;;;;;;;;4508682;28;20138;-64
2022/01/19 11:07:53;;;;;;;1.73;1.40;;;;;;;;;;4507484;28;20037;-64
2022/01/19 11:10:10;;;;;;;2.23;1.60;;;;;;;;;;4508666;28;20038;-64
2022/01/19 11:12:22;;;;;;;1.92;1.73;;;;;;;;;;4508777;28;20144;-64
2022/01/19 11:14:35;;;;;;;3.10;2.00;;;;;;;;;;4509234;28;20033;-64
2022/01/19 11:16:47;;;;;;;1.80;1.65;;;;;;;;;;4508715;28;20597;-64
2022/01/19 11:18:58;;;;;;;2.92;2.08;;;;;;;;;;4540280;28;20933;-64
2022/01/19 11:21:10;;;;;;;3.13;1.83;;;;;;;;;;4507787;28;20050;-64
2022/01/19 11:23:31;;;;;;;2.60;2.40;;;;;;;;;;4507511;28;20569;-64
2022/01/19 11:25:51;;;;;;;3.47;2.20;;;;;;;;;;4509326;28;20553;-64
2022/01/19 11:28:02;;;;;;;2.25;2.05;;;;;;;;;;4508218;28;20033;-64
2022/01/19 11:30:13;;;;;;;3.90;2.00;;;;;;;;;;4508189;28;20417;-64
2022/01/19 11:32:23;;;;;;;4.10;2.90;;;;;;;;;;4508254;28;20026;-64
2022/01/19 11:34:47;;;;;;;4.23;2.97;;;;;;;;;;4509501;28;20095;-64
2022/01/19 11:36:58;;;;;;;3.92;3.22;;;;;;;;;;4519911;28;20169;-64
2022/01/19 11:39:23;;;;;;;3.77;2.50;;;;;;;;;;4508661;28;20116;-64
2022/01/19 11:41:49;;;;;;;2.75;2.38;;;;;;;;;;4507873;28;20241;-64
2022/01/19 11:44:00;;;;;;;3.47;2.60;;;;;;;;;;4509466;28;20038;-69
2022/01/19 11:46:26;;;;;;;3.27;2.43;;;;;;;;;;4508815;28;20573;-67
2022/01/19 11:48:43;;;;;;;3.17;2.60;;;;;;;;;;4539433;28;20160;-67
2022/01/19 11:51:06;;;;;;;3.30;2.80;;;;;;;;;;4507511;28;20041;-67
2022/01/19 11:53:17;;;;;;;2.30;2.00;;;;;;;;;;4508814;28;20038;-67
2022/01/19 11:55:29;;;;;;;2.35;1.95;;;;;;;;;;4540135;28;20619;-67
2022/01/19 11:57:41;;;;;;;3.00;1.98;;;;;;;;;;4515153;28;20209;-67
2022/01/19 11:59:57;;;;;;;2.58;2.08;;;;;;;;;;4507477;28;20041;-67
2022/01/19 12:02:28;;;;;;;3.38;2.53;;;;;;;;;;4508578;28;20125;-67
2022/01/19 12:04:38;;;;;;;2.13;1.92;;;;;;;;;;4507758;28;20104;-67
2022/01/19 12:06:49;;;;;;;2.50;2.30;;;;;;;;;;4507812;28;20101;-67
2022/01/19 12:09:00;;;;;;;2.50;2.30;;;;;;;;;;4507619;28;20029;-67
2022/01/19 12:11:11;;;;;;;;;;;;;;;;;;4508166;28;20077;-67
2022/01/19 12:15:59;;;;;;;3.65;2.95;;;;;;;;;;4507494;28;20037;-68
2022/01/19 12:18:10;;;;;;;3.60;3.17;;;;;;;;;;4509288;28;20042;-67
2022/01/19 12:20:46;;;;;;;3.55;3.20;;;;;;;;;;4510044;28;20034;-67
2022/01/19 12:23:26;;;;;;;5.63;4.25;;;;;;;;;;4508375;28;20034;-67
2022/01/19 12:25:53;;;;;;;5.30;4.30;;;;;;;;;;4505865;28;20080;-67
2022/01/19 12:28:04;;;;;;;4.30;3.35;;;;;;;;;;4506067;28;20129;-67
2022/01/19 12:30:17;;;;;;;6.30;4.90;;;;;;;;;;4508667;28;20042;-67
2022/01/19 12:32:27;;;;;;;11.93;9.10;;;;;;;;;;4506918;28;20989;-68
2022/01/19 12:34:48;;;;;;;38.23;28.43;;;;;;;;;;4509239;28;20042;-67
2022/01/19 12:36:59;;;;;;;34.70;27.83;;;;;;;;;;4508091;28;20042;-67
2022/01/19 12:39:24;;;;;;;36.33;27.83;;;;;;;;;;4506240;28;20025;-68
2022/01/19 12:41:59;;;;;;;37.38;27.15;;;;;;;;;;4508954;28;20034;-67
2022/01/19 12:44:39;;;;;;;37.13;27.75;;;;;;;;;;4510107;28;20129;-67
2022/01/19 12:46:51;;;;;;;38.20;28.92;;;;;;;;;;4543442;28;20048;-67
2022/01/19 12:49:28;;;;;;;36.50;27.58;;;;;;;;;;4505037;28;20121;-67
2022/01/19 12:51:41;;;;;;;34.53;26.58;;;;;;;;;;4511621;28;20520;-67
2022/01/19 12:53:52;;;;;;;32.88;26.73;;;;;;;;;;4525179;28;20099;-67
2022/01/19 12:56:05;;;;;;;33.43;27.60;;;;;;;;;;4508900;28;20030;-67
2022/01/19 12:58:28;;;;;;;4.75;3.67;;;;;;;;;;4511285;28;20845;-67
2022/01/19 13:00:39;;;;;;;4.80;3.80;;;;;;;;;;4510696;28;20100;-67
2022/01/19 13:02:50;;;;;;;5.53;3.60;;;;;;;;;;4542717;28;20044;-67
2022/01/19 13:05:08;;;;;;;4.10;3.67;;;;;;;;;;4543117;28;20041;-68
2022/01/19 13:07:26;;;;;;;5.30;4.00;;;;;;;;;;4511643;28;20046;-67
2022/01/19 13:09:41;;;;;;;5.93;4.85;;;;;;;;;;4511643;28;20303;-67
2022/01/19 13:11:54;;;;;;;5.13;4.10;;;;;;;;;;4510069;28;20036;-67
2022/01/19 13:14:07;;;;;;;5.15;4.15;;;;;;;;;;4510579;28;20037;-67
2022/01/19 13:16:44;;;;;;;7.03;4.63;;;;;;;;;;4509687;28;20550;-67
2022/01/19 13:19:00;;;;;;;5.93;4.70;;;;;;;;;;4511405;28;20029;-67
2022/01/19 13:21:14;;;;;;;6.28;4.75;;;;;;;;;;4514268;28;20084;-67
2022/01/19 13:23:24;;;;;;;4.82;4.20;;;;;;;;;;4509077;28;20600;-67
2022/01/19 13:25:35;;;;;;;5.30;4.57;;;;;;;;;;4510188;28;20030;-67
2022/01/19 13:27:46;;;;;;;6.53;5.20;;;;;;;;;;4509864;28;22370;-67
2022/01/19 13:29:56;;;;;;;6.40;4.95;;;;;;;;;;4510860;28;20084;-67
2022/01/19 13:32:15;;;;;;;5.23;4.20;;;;;;;;;;4511526;28;20078;-67
2022/01/19 13:34:27;;;;;;;4.70;3.90;;;;;;;;;;4542590;28;20111;-67
2022/01/19 13:36:37;;;;;;;4.65;4.05;;;;;;;;;;4508998;28;20048;-67
2022/01/19 13:38:52;;;;;;;4.87;3.87;;;;;;;;;;4510627;28;20052;-67
2022/01/19 13:41:03;;;;;;;5.78;4.35;;;;;;;;;;4511422;28;20099;-67
2022/01/19 13:43:18;;;;;;;4.70;4.00;;;;;;;;;;4510846;28;20128;-67
2022/01/19 13:47:55;;;;;;;4.47;3.85;;;;;;;;;;4511575;28;20037;-67
2022/01/19 13:50:05;;;;;;;4.32;3.78;;;;;;;;;;4509418;28;20034;-67
2022/01/19 13:52:20;;;;;;;5.23;4.27;;;;;;;;;;4510535;28;20044;-67
2022/01/19 13:54:30;;;;;;;5.15;4.10;;;;;;;;;;4516370;28;20033;-67
2022/01/19 13:56:41;;;;;;;5.00;4.07;;;;;;;;;;4540731;28;20037;-69
2022/01/19 13:59:20;;;;;;;5.45;4.30;;;;;;;;;;4517051;28;20568;-66
2022/01/19 14:01:59;;;;;;;5.20;3.80;;;;;;;;;;4509568;28;20042;-67
2022/01/19 14:04:11;;;;;;;5.53;4.13;;;;;;;;;;4508755;28;20049;-67
2022/01/19 14:06:27;;;;;;;5.25;3.97;;;;;;;;;;4509628;28;20115;-67
2022/01/19 14:08:37;;;;;;;5.22;4.20;;;;;;;;;;4542370;28;20033;-67
2022/01/19 14:10:49;;;;;;;5.73;4.73;;;;;;;;;;4540935;28;20037;-66
2022/01/19 14:13:23;;;;;;;5.07;4.00;;;;;;;;;;4519494;28;20025;-67
2022/01/19 14:15:39;;;;;;;5.85;4.60;;;;;;;;;;4511897;28;20041;-66
2022/01/19 14:17:50;;;;;;;5.03;4.32;;;;;;;;;;4509996;28;21687;-66
2022/01/19 14:20:01;;;;;;;5.30;4.27;;;;;;;;;;4511764;28;20030;-67
2022/01/19 14:22:21;;;;;;;6.57;4.82;;;;;;;;;;4543182;28;20838;-68
2022/01/19 14:24:40;;;;;;;6.40;4.70;;;;;;;;;;4511045;28;20034;-68
2022/01/19 14:26:59;;;;;;;5.85;4.63;;;;;;;;;;4516859;28;20890;-67
2022/01/19 14:29:13;;;;;;;6.30;4.97;;;;;;;;;;4542793;28;20500;-69
2022/01/19 14:31:24;;;;;;;5.50;4.35;;;;;;;;;;4510069;28;20565;-68
2022/01/19 14:33:47;;;;;;;5.43;4.40;;;;;;;;;;4508593;28;20085;-68
2022/01/19 14:35:59;;;;;;;5.88;4.63;;;;;;;;;;4510434;28;20112;-67
2022/01/19 14:38:28;;;;;;;6.47;4.65;;;;;;;;;;4510429;28;20132;-67
2022/01/19 14:41:02;;;;;;;6.13;4.95;;;;;;;;;;4509163;28;20034;-67
2022/01/19 14:43:15;;;;;;;5.70;4.60;;;;;;;;;;4510813;28;20037;-67
2022/01/19 14:45:36;;;;;;;4.90;4.30;;;;;;;;;;4542099;28;20141;-67
2022/01/19 14:47:47;;;;;;;5.25;4.40;;;;;;;;;;4510271;28;20042;-67
2022/01/19 14:49:57;;;;;;;4.70;4.10;;;;;;;;;;4540600;28;20525;-62
2022/01/19 14:52:07;;;;;;;5.73;4.57;;;;;;;;;;4509059;28;20068;-72
2022/01/19 14:54:18;;;;;;;5.37;4.23;;;;;;;;;;4508766;28;20117;-66